»·PEaware :: N851TX MYNN-KEYW

N851TX :: MYNN-KEYW

FLIGHT INFORMATION

Flight Status: Arrived
Operator: Privately registered:
United States
More flights under this callsign
Pilot: Andrew J. (13363)
Aircraft: Unknown
(TBM9)
More flights by this aircraft type
Origin: MYNN Nassau Intl
Bahamas
Destination: KEYW Key West Intl
United States
More flights between these airports :: More routes between these airports
Route: ZQA BR49V FOWEE MTH
File this flight plan on PilotEdge
Remarks:
Altitude:
(Current/Filed)
30,000ft
Speed:
(Current/Filed)
307kts
Departed: 10-Jul-18 03:44 PM
Arrived: 10-Jul-18 05:10 PM
Distance/Time
Traveled:
236nm/1:26
Distance/Time
To Go:
Arrived

Flight Plot

Page will automatically refresh every two minutes.

Flight plan parsing failed; only flown route is shown


Map Options




Map Legend


Flown Route
Filed Route
Departure Airport
Arrival Airport
Navaid (VOR, NDB)
Fix

Horizontal Profiles

Position Reports

Time Latitude Longitude Heading Altitude Ground
Speed
10-Jul-18 15:31 25.030965 -77.456985 134 19ft 0kts
10-Jul-18 15:32 25.030965 -77.456985 134 19ft 0kts
10-Jul-18 15:33 25.030965 -77.456985 134 19ft 0kts
10-Jul-18 15:34 25.030913 -77.456918 119 19ft 3kts
10-Jul-18 15:35 25.031625 -77.456529 316 19ft 6kts
10-Jul-18 15:36 25.033785 -77.456351 22 19ft 8kts
10-Jul-18 15:45 25.070326 -77.571424 232 8389ft 164kts
10-Jul-18 15:46 25.043312 -77.611817 232 10537ft 168kts
10-Jul-18 15:47 25.020670 -77.656942 254 12629ft 175kts
10-Jul-18 15:48 25.014069 -77.710731 264 14494ft 182kts
10-Jul-18 15:49 25.010890 -77.767423 265 16294ft 189kts
10-Jul-18 15:50 25.008077 -77.825933 265 18294ft 195kts
10-Jul-18 15:51 25.005186 -77.886688 264 20356ft 202kts
10-Jul-18 15:52 25.002186 -77.949318 264 22396ft 210kts
10-Jul-18 15:53 24.999043 -78.014321 264 24341ft 216kts
10-Jul-18 15:54 24.995786 -78.081074 264 26058ft 223kts
10-Jul-18 15:55 24.992387 -78.150140 263 27611ft 229kts
10-Jul-18 15:56 24.988877 -78.220725 263 29005ft 234kts
10-Jul-18 15:57 24.985116 -78.295480 263 29874ft 255kts
10-Jul-18 15:58 24.980915 -78.378235 264 30087ft 288kts
10-Jul-18 15:59 24.976244 -78.469575 264 30078ft 307kts
10-Jul-18 16:00 24.971270 -78.564993 264 30075ft 316kts
10-Jul-18 16:01 24.966441 -78.656319 263 30073ft 319kts
10-Jul-18 16:02 24.962978 -78.721393 263 30070ft 319kts
10-Jul-18 16:03 24.957750 -78.818728 263 30070ft 318kts
10-Jul-18 16:04 24.952461 -78.915983 263 30070ft 318kts
10-Jul-18 16:05 24.947091 -79.013002 264 30069ft 319kts
10-Jul-18 16:06 24.941569 -79.111412 266 30074ft 325kts
10-Jul-18 16:07 24.934895 -79.210938 266 30079ft 329kts
10-Jul-18 16:08 24.923786 -79.310959 265 30077ft 330kts
10-Jul-18 16:09 24.912544 -79.410506 265 30078ft 330kts
10-Jul-18 16:10 24.901155 -79.510738 265 30078ft 330kts
10-Jul-18 16:11 24.889756 -79.610416 265 30074ft 330kts
10-Jul-18 16:15 25.030965 -77.456985 134 19ft 0kts
10-Jul-18 16:16 25.031073 -77.456787 11 19ft 7kts
10-Jul-18 16:17 25.037088 -77.459064 318 19ft 79kts
10-Jul-18 16:18 25.046684 -77.492890 231 1311ft 152kts
10-Jul-18 16:19 25.018886 -77.533230 232 3117ft 168kts
10-Jul-18 16:20 24.990611 -77.574191 231 4993ft 170kts
10-Jul-18 16:21 24.962315 -77.616569 248 6718ft 177kts
10-Jul-18 16:22 24.978134 -77.666694 296 8843ft 179kts
10-Jul-18 16:23 25.000625 -77.716194 297 10796ft 184kts
10-Jul-18 16:24 25.010449 -77.771091 266 12569ft 188kts
10-Jul-18 16:25 25.007889 -77.829656 265 14314ft 196kts
10-Jul-18 16:26 25.005023 -77.890007 265 16170ft 201kts
10-Jul-18 16:27 25.002034 -77.952341 265 17817ft 207kts
10-Jul-18 16:28 24.998931 -78.016595 265 19482ft 215kts
10-Jul-18 16:29 24.995717 -78.082564 265 21286ft 220kts
10-Jul-18 16:30 24.992359 -78.150845 264 23159ft 227kts
10-Jul-18 16:31 24.988873 -78.220938 264 24839ft 233kts
10-Jul-18 16:32 24.985249 -78.293123 264 26341ft 239kts
10-Jul-18 16:33 24.981505 -78.366982 264 27714ft 245kts
10-Jul-18 16:34 24.977642 -78.442463 263 28977ft 250kts
10-Jul-18 16:35 24.973546 -78.521613 263 29710ft 269kts
10-Jul-18 16:36 24.968992 -78.607750 264 29882ft 295kts
10-Jul-18 16:37 24.965490 -78.674088 263 29874ft 307kts
10-Jul-18 16:38 24.961002 -78.758275 263 29871ft 315kts
10-Jul-18 16:39 24.955780 -78.855071 263 29870ft 318kts
10-Jul-18 16:40 24.951362 -78.936050 263 29870ft 320kts
10-Jul-18 16:41 24.944983 -79.050653 265 29864ft 324kts
10-Jul-18 16:42 24.939369 -79.150487 267 29862ft 329kts
10-Jul-18 16:43 24.930473 -79.251287 265 29857ft 332kts
10-Jul-18 16:44 24.919158 -79.352023 265 29858ft 333kts
10-Jul-18 16:45 24.907710 -79.453135 265 29858ft 333kts
10-Jul-18 16:46 24.896227 -79.553905 265 29854ft 333kts
10-Jul-18 16:47 24.884855 -79.653113 265 29854ft 332kts
10-Jul-18 16:48 24.875721 -79.732394 265 29850ft 332kts
10-Jul-18 16:49 24.864070 -79.832960 265 29851ft 332kts
10-Jul-18 16:50 24.852380 -79.933275 265 29851ft 331kts
10-Jul-18 16:51 24.840586 -80.033865 265 29852ft 332kts
10-Jul-18 16:52 24.828726 -80.134538 265 29576ft 340kts
10-Jul-18 16:53 24.816078 -80.241182 264 27963ft 362kts
10-Jul-18 16:54 24.802896 -80.351576 264 26299ft 367kts
10-Jul-18 16:55 24.789549 -80.462671 264 24621ft 367kts
10-Jul-18 16:56 24.776259 -80.572563 264 22927ft 357kts
10-Jul-18 16:57 24.767462 -80.644937 263 21785ft 351kts
10-Jul-18 16:58 24.754630 -80.750056 263 20088ft 346kts
10-Jul-18 16:59 24.741839 -80.854155 263 18382ft 338kts
10-Jul-18 17:00 24.729371 -80.954991 263 16680ft 330kts
10-Jul-18 17:01 24.717042 -81.054262 263 14979ft 324kts
10-Jul-18 17:02 24.699160 -81.150234 256 13301ft 320kts
10-Jul-18 17:03 24.677913 -81.241571 256 11729ft 309kts
10-Jul-18 17:04 24.656865 -81.331625 256 9974ft 293kts
10-Jul-18 17:05 24.636917 -81.416817 256 7972ft 284kts
10-Jul-18 17:06 24.617406 -81.499928 256 5976ft 279kts
10-Jul-18 17:07 24.598943 -81.578354 257 4597ft 250kts
10-Jul-18 17:08 24.581299 -81.652371 251 2125ft 252kts
10-Jul-18 17:09 24.554355 -81.713623 284 1310ft 166kts
10-Jul-18 17:10 24.556212 -81.751502 272 32ft 83kts
10-Jul-18 17:11 24.555795 -81.762103 197 3ft 15kts
10-Jul-18 17:12 24.555286 -81.758886 88 3ft 20kts
10-Jul-18 17:13 24.554945 -81.757472 252 3ft 1kts
10-Jul-18 17:14 24.554811 -81.757484 358 3ft 0kts
10-Jul-18 17:15 24.554810 -81.757484 358 3ft 0kts
10-Jul-18 17:16 24.554810 -81.757484 358 3ft 0kts
10-Jul-18 17:17 24.554810 -81.757484 358 3ft 0kts
10-Jul-18 17:18 24.554810 -81.757484 358 3ft 0kts
10-Jul-18 17:19 24.554810 -81.757484 358 3ft 0kts
10-Jul-18 17:20 24.554810 -81.757484 358 3ft 0kts
10-Jul-18 17:21 24.554810 -81.757484 358 3ft 0kts
10-Jul-18 17:22 24.554810 -81.757484 358 3ft 0kts
10-Jul-18 17:23 24.554810 -81.757484 358 3ft 0kts
10-Jul-18 17:24 24.554810 -81.757484 358 3ft 0kts
10-Jul-18 17:25 24.554810 -81.757484 358 3ft 0kts

Navigation Log

Ident Type
Flight plan parsing failed, navigation log unavailable